createdAt,value
2019-05-22T00:02:25.578Z,22.93
2019-05-22T00:05:10.717Z,24.12
2019-05-22T00:07:37.925Z,22.70
2019-05-22T00:10:07.173Z,23.98
2019-05-22T00:12:46.300Z,24.00
2019-05-22T00:15:04.362Z,27.22
2019-05-22T00:17:31.657Z,25.57
2019-05-22T00:19:58.677Z,24.27
2019-05-22T00:22:26.680Z,23.83
2019-05-22T00:24:53.903Z,23.27
2019-05-22T00:27:21.628Z,24.57
2019-05-22T00:29:47.774Z,25.15
2019-05-22T00:32:15.489Z,25.20
2019-05-22T00:34:42.430Z,24.52
2019-05-22T00:37:08.618Z,25.20
2019-05-22T00:39:36.567Z,24.00
2019-05-22T00:42:02.785Z,25.90
2019-05-22T00:44:28.784Z,24.60
2019-05-22T00:46:55.005Z,23.83
2019-05-22T00:49:21.720Z,23.87
2019-05-22T00:51:56.250Z,23.70
2019-05-22T00:54:24.224Z,23.95
2019-05-22T00:56:53.011Z,26.80
2019-05-22T00:59:23.422Z,25.97
2019-05-22T01:01:54.926Z,27.52
2019-05-22T01:04:39.503Z,26.60
2019-05-22T01:07:11.407Z,27.20
2019-05-22T01:09:43.840Z,25.55
2019-05-22T03:07:10.024Z,30.05
2019-05-22T03:09:39.917Z,27.50
2019-05-22T03:12:07.728Z,29.70
2019-05-22T03:14:35.049Z,27.42
2019-05-22T03:17:03.835Z,30.80
2019-05-22T03:19:40.964Z,31.05
2019-05-22T03:22:18.207Z,28.83
2019-05-22T03:24:44.075Z,28.98
2019-05-22T03:27:11.220Z,26.83
2019-05-22T03:29:40.835Z,27.73
2019-05-22T03:32:07.242Z,26.27
2019-05-22T03:34:34.635Z,26.48
2019-05-22T03:37:01.311Z,27.60
2019-05-22T03:39:27.195Z,27.50
2019-05-22T03:41:53.034Z,26.60
2019-05-22T03:44:18.795Z,27.00
2019-05-22T03:46:45.603Z,27.07
2019-05-22T03:49:29.383Z,25.88
2019-05-22T03:51:45.364Z,26.90
2019-05-22T03:54:12.082Z,27.52
2019-05-22T03:56:39.402Z,27.80
2019-05-22T03:59:05.864Z,25.88
2019-05-22T04:01:32.781Z,28.77
2019-05-22T04:03:59.360Z,25.65
2019-05-22T04:06:25.525Z,26.15
2019-05-22T04:08:51.546Z,26.90
2019-05-22T04:11:18.224Z,26.95
2019-05-22T04:13:44.017Z,26.10
2019-05-22T04:16:12.111Z,26.13
2019-05-22T04:18:38.420Z,25.02
2019-05-22T04:21:04.451Z,25.88
2019-05-22T04:23:30.337Z,27.60
2019-05-22T04:25:56.123Z,24.97
2019-05-22T04:28:23.276Z,26.77
2019-05-22T04:30:49.926Z,23.70
2019-05-22T04:33:16.799Z,24.45
2019-05-22T04:35:42.587Z,26.60
2019-05-22T04:38:09.705Z,25.63
2019-05-22T04:40:42.779Z,24.80
2019-05-22T04:43:10.401Z,24.10
2019-05-22T04:45:36.212Z,24.55
2019-05-22T04:48:02.922Z,24.90
2019-05-22T04:50:29.865Z,24.37
2019-05-22T04:52:56.073Z,24.43
2019-05-22T04:55:23.473Z,25.82
2019-05-22T04:57:49.376Z,23.42
2019-05-22T05:00:16.001Z,25.80
2019-05-22T05:02:42.120Z,22.85
2019-05-22T05:05:10.235Z,24.32
2019-05-22T05:07:37.424Z,23.35
2019-05-22T05:10:04.730Z,23.87
2019-05-22T05:12:30.564Z,22.80
2019-05-22T05:14:56.988Z,25.30
2019-05-22T05:17:23.327Z,22.05
2019-05-22T05:19:49.357Z,22.95
2019-05-22T05:22:17.785Z,24.52
2019-05-22T05:24:43.591Z,21.95
2019-05-22T05:27:10.346Z,23.07
2019-05-22T05:29:36.123Z,24.37
2019-05-22T05:32:02.156Z,23.57
2019-05-22T05:34:35.355Z,23.42
2019-05-22T05:37:01.775Z,22.90
2019-05-22T05:39:39.659Z,28.15
2019-05-22T05:42:05.831Z,29.60
2019-05-22T05:44:33.037Z,22.73
2019-05-22T05:46:59.162Z,21.87
2019-05-22T05:49:26.117Z,23.77
2019-05-22T05:51:52.534Z,20.60
2019-05-22T05:54:18.350Z,21.90
2019-05-22T05:56:44.657Z,22.87
2019-05-22T05:59:11.855Z,20.70
2019-05-22T06:01:39.765Z,21.23
2019-05-22T06:04:05.686Z,22.10
2019-05-22T06:06:35.470Z,21.77
2019-05-22T06:09:03.182Z,20.23
2019-05-22T06:11:32.806Z,19.73
2019-05-22T06:14:00.220Z,19.52
2019-05-22T06:16:49.423Z,21.95
2019-05-22T06:19:15.788Z,19.82
2019-05-22T06:21:46.573Z,20.82
2019-05-22T06:24:19.299Z,19.62
2019-05-22T06:26:49.157Z,19.65
2019-05-22T06:29:15.328Z,21.77
2019-05-22T06:32:03.790Z,22.87
2019-05-22T06:34:29.876Z,20.32
2019-05-22T06:36:59.508Z,19.65
2019-05-22T06:39:25.349Z,21.10
2019-05-22T06:41:51.410Z,21.30
2019-05-22T06:44:26.648Z,22.37
2019-05-22T06:46:52.449Z,21.02
2019-05-22T06:49:34.348Z,19.00
2019-05-22T06:52:01.547Z,21.60
2019-05-22T06:54:27.743Z,20.10
2019-05-22T06:56:53.542Z,20.90
2019-05-22T06:59:19.411Z,19.67
2019-05-22T07:04:09.914Z,19.00
2019-05-22T07:06:36.046Z,19.30
2019-05-22T07:09:03.121Z,20.10
2019-05-22T07:11:29.324Z,17.80
2019-05-22T07:13:55.607Z,20.20
2019-05-22T07:16:21.420Z,19.53
2019-05-22T07:18:47.230Z,20.63
2019-05-22T07:21:13.264Z,18.37
2019-05-22T07:23:39.127Z,18.37
2019-05-22T07:26:05.233Z,19.73
2019-05-22T07:28:31.420Z,19.20
2019-05-22T07:30:57.850Z,19.30
2019-05-22T07:33:23.759Z,18.40
2019-05-22T07:36:08.625Z,19.17
2019-05-22T07:38:19.566Z,18.40
2019-05-22T07:40:49.883Z,16.73
2019-05-22T07:43:14.385Z,16.83
2019-05-22T07:45:40.637Z,18.05
2019-05-22T07:48:07.242Z,16.53
2019-05-22T07:50:35.292Z,19.10
2019-05-22T07:53:01.797Z,20.30
2019-05-22T07:55:30.217Z,16.97
2019-05-22T07:58:02.985Z,18.70
2019-05-22T08:00:29.319Z,16.77
2019-05-22T08:02:55.213Z,16.87
2019-05-22T08:05:26.996Z,15.80
2019-05-22T08:07:53.097Z,15.43
2019-05-22T08:10:20.384Z,15.90
2019-05-22T08:12:47.233Z,16.33
2019-05-22T08:15:13.499Z,15.53
2019-05-22T08:17:39.873Z,14.78
2019-05-22T08:20:05.902Z,13.90
2019-05-22T08:22:32.244Z,12.43
2019-05-22T08:24:58.198Z,13.30
2019-05-22T08:27:23.970Z,13.53
2019-05-22T08:29:50.058Z,11.60
2019-05-22T08:32:17.020Z,12.70
2019-05-22T08:34:43.361Z,12.97
2019-05-22T08:37:12.990Z,11.77
2019-05-22T08:39:39.388Z,12.37
2019-05-22T08:42:06.471Z,11.00
2019-05-22T08:44:33.107Z,11.57
2019-05-22T08:46:59.609Z,10.87
2019-05-22T08:49:25.536Z,10.57
2019-05-22T08:51:51.758Z,10.77
2019-05-22T08:54:18.148Z,9.70
2019-05-22T08:56:47.772Z,11.20
2019-05-22T08:59:19.627Z,8.97
2019-05-22T09:01:41.648Z,9.40
2019-05-22T09:04:08.131Z,10.17
2019-05-22T09:06:34.026Z,8.80
2019-05-22T09:08:59.838Z,9.30
2019-05-22T09:11:25.724Z,10.93
2019-05-22T09:13:51.788Z,9.17
2019-05-22T09:16:19.655Z,9.33
2019-05-22T09:18:45.650Z,8.17
2019-05-22T09:21:11.638Z,8.13
2019-05-22T09:23:38.136Z,9.20
2019-05-22T09:26:05.027Z,10.03
2019-05-22T09:28:30.929Z,9.27
2019-05-22T09:30:56.762Z,9.90
2019-05-22T09:33:23.422Z,9.20
2019-05-22T09:35:49.212Z,8.30
2019-05-22T09:38:15.124Z,7.50
2019-05-22T09:40:41.049Z,8.97
2019-05-22T09:43:07.073Z,8.63
2019-05-22T09:45:37.769Z,8.83
2019-05-22T09:48:04.270Z,9.20
2019-05-22T09:50:30.302Z,9.53
2019-05-22T09:52:58.297Z,8.73
2019-05-22T09:55:24.403Z,9.50
2019-05-22T09:57:50.417Z,8.80
2019-05-22T10:00:17.755Z,8.27
2019-05-22T10:02:43.963Z,8.33
2019-05-22T10:05:10.297Z,7.27
2019-05-22T10:07:57.108Z,8.37
2019-05-22T10:10:08.073Z,7.73
2019-05-22T10:12:34.222Z,8.60
2019-05-22T10:15:01.485Z,7.80
2019-05-22T10:17:28.422Z,8.37
2019-05-22T10:19:54.606Z,7.70
2019-05-22T10:22:27.523Z,8.00
2019-05-22T10:25:12.118Z,8.17
2019-05-22T10:27:21.376Z,6.90
2019-05-22T10:29:47.262Z,6.43
2019-05-22T10:32:13.264Z,6.90
2019-05-22T10:34:39.159Z,5.87
2019-05-22T10:37:06.423Z,8.33
2019-05-22T10:39:33.539Z,10.50
2019-05-22T10:41:59.673Z,6.40
2019-05-22T10:44:25.693Z,6.43
2019-05-22T10:46:51.475Z,6.70
2019-05-22T10:49:17.494Z,6.43
2019-05-22T10:51:43.361Z,5.47
2019-05-22T10:54:12.043Z,6.10
2019-05-22T10:56:37.962Z,6.13
2019-05-22T10:59:08.424Z,6.03
2019-05-22T11:01:37.562Z,5.53
2019-05-22T11:04:03.459Z,5.20
2019-05-22T11:06:29.731Z,5.77
2019-05-22T11:08:55.899Z,5.40
2019-05-22T11:11:22.369Z,5.07
2019-05-22T11:14:00.569Z,6.30
2019-05-22T11:16:16.679Z,5.20
2019-05-22T11:18:43.021Z,5.33
2019-05-22T11:21:10.566Z,5.03
2019-05-22T11:23:50.346Z,6.80
2019-05-22T11:26:04.281Z,6.20
2019-05-22T11:28:30.832Z,6.83
2019-05-22T11:31:00.009Z,5.33
2019-05-22T11:33:26.024Z,6.00
2019-05-22T11:35:52.220Z,6.27
2019-05-22T11:38:18.336Z,6.27
2019-05-22T11:40:44.136Z,5.23
2019-05-22T11:43:12.420Z,5.17
2019-05-22T11:45:38.254Z,16.17
2019-05-22T11:48:04.552Z,5.60
2019-05-22T11:50:32.515Z,4.30
2019-05-22T11:52:58.418Z,5.00
2019-05-22T11:55:42.168Z,5.23
2019-05-22T11:57:54.793Z,5.03
2019-05-22T12:00:22.089Z,3.77
2019-05-22T12:02:48.868Z,3.80
2019-05-22T12:05:15.401Z,3.70
2019-05-22T12:07:44.627Z,3.70
2019-05-22T12:10:12.658Z,3.53
2019-05-22T12:12:39.700Z,3.13
2019-05-22T12:15:07.742Z,3.30
2019-05-22T12:17:38.228Z,3.50
2019-05-22T12:20:04.953Z,3.27
2019-05-22T12:22:30.827Z,2.97
2019-05-22T12:24:56.636Z,2.80
2019-05-22T12:27:22.834Z,2.73
2019-05-22T12:29:49.245Z,2.80
2019-05-22T12:32:15.369Z,3.03
2019-05-22T12:34:41.486Z,3.20
2019-05-22T12:37:08.470Z,3.50
2019-05-22T12:39:36.954Z,4.07
2019-05-22T12:42:03.459Z,3.40
2019-05-22T12:44:29.486Z,3.03
2019-05-22T12:46:55.407Z,3.50
2019-05-22T12:49:25.694Z,2.97
2019-05-22T12:51:51.506Z,3.73
2019-05-22T12:54:17.394Z,3.80
2019-05-22T12:56:44.507Z,2.93
2019-05-22T12:59:11.941Z,2.90
2019-05-22T13:01:38.246Z,2.70
2019-05-22T13:04:05.232Z,2.70
2019-05-22T13:06:32.809Z,2.70
2019-05-22T13:08:58.710Z,2.70
2019-05-22T13:11:24.477Z,2.90
2019-05-22T13:13:50.379Z,2.53
2019-05-22T13:16:19.500Z,3.30
2019-05-22T13:18:46.012Z,3.47
2019-05-22T13:21:17.850Z,2.37
2019-05-22T13:23:43.960Z,2.53
2019-05-22T13:26:09.833Z,2.90
2019-05-22T13:28:37.857Z,9.10
2019-05-22T13:31:05.242Z,4.60
2019-05-22T13:33:34.774Z,2.33
2019-05-22T13:36:00.651Z,2.43
2019-05-22T13:38:26.756Z,3.03
2019-05-22T13:40:53.490Z,2.43
2019-05-22T13:43:19.292Z,2.60
2019-05-22T13:45:45.484Z,2.83
2019-05-22T13:48:11.576Z,2.40
2019-05-22T13:50:37.831Z,1.93
2019-05-22T13:53:08.157Z,2.40
2019-05-22T13:55:35.027Z,1.90
2019-05-22T13:58:02.136Z,1.90
2019-05-22T14:00:28.407Z,2.23
2019-05-22T14:02:54.361Z,1.70
2019-05-22T14:05:20.519Z,1.77
2019-05-22T14:07:46.389Z,2.20
2019-05-22T14:10:12.494Z,2.67
2019-05-22T14:12:38.704Z,1.83
2019-05-22T14:15:07.830Z,1.73
2019-05-22T14:17:34.057Z,2.23
2019-05-22T14:19:59.982Z,1.30
2019-05-22T14:22:26.135Z,1.90
2019-05-22T14:24:55.216Z,1.83
2019-05-22T14:27:21.036Z,1.97
2019-05-22T14:29:50.132Z,2.10
2019-05-22T14:32:16.334Z,1.70
2019-05-22T14:34:44.325Z,1.47
2019-05-22T14:37:11.482Z,1.97
2019-05-22T14:39:40.720Z,1.60
2019-05-22T14:42:07.741Z,1.70
2019-05-22T14:44:34.436Z,2.17
2019-05-22T14:47:13.304Z,2.17
2019-05-22T14:49:28.311Z,3.40
2019-05-22T14:51:54.289Z,3.70
2019-05-22T14:54:21.068Z,3.70
2019-05-22T14:56:47.670Z,2.97
2019-05-22T14:59:13.489Z,3.97
2019-05-22T15:01:42.530Z,3.47
2019-05-22T15:04:08.413Z,3.63
2019-05-22T15:06:37.548Z,4.43
2019-05-22T15:09:05.884Z,4.30
2019-05-22T15:11:31.894Z,3.03
2019-05-22T15:13:57.980Z,3.63
2019-05-22T15:16:24.103Z,3.27
2019-05-22T15:18:50.140Z,2.73
2019-05-22T15:21:16.583Z,3.30
2019-05-22T15:23:42.755Z,3.73
2019-05-22T15:26:08.858Z,4.20
2019-05-22T15:28:39.026Z,4.33
2019-05-22T15:31:04.816Z,4.17
2019-05-22T15:33:31.515Z,3.50
2019-05-22T15:35:57.961Z,3.30
2019-05-22T15:38:30.318Z,3.67
2019-05-22T15:40:56.099Z,3.60
2019-05-22T15:43:22.981Z,4.33
2019-05-22T15:45:49.468Z,5.03
2019-05-22T15:48:18.346Z,4.57
2019-05-22T15:50:46.305Z,4.10
2019-05-22T15:53:15.172Z,4.87
2019-05-22T15:55:42.268Z,4.10
2019-05-22T15:58:09.219Z,4.90
2019-05-22T16:00:36.931Z,4.33
2019-05-22T16:03:09.114Z,4.60
2019-05-22T16:05:36.407Z,4.80
2019-05-22T16:08:03.379Z,4.53
2019-05-22T16:10:29.387Z,4.60
2019-05-22T16:12:55.488Z,3.87
2019-05-22T16:15:22.167Z,3.50
2019-05-22T16:17:48.677Z,4.30
2019-05-22T16:20:17.941Z,3.90
2019-05-22T16:22:43.802Z,3.50
2019-05-22T16:25:10.407Z,2.53
2019-05-22T16:27:39.626Z,3.17
2019-05-22T16:30:06.085Z,2.87
2019-05-22T16:32:32.642Z,2.53
2019-05-22T16:34:58.528Z,3.23
2019-05-22T16:37:24.848Z,3.23
2019-05-22T16:39:50.970Z,6.60
2019-05-22T16:42:17.031Z,4.20
2019-05-22T16:44:42.834Z,3.33
2019-05-22T16:47:09.269Z,2.93
2019-05-22T16:49:35.397Z,3.10
2019-05-22T16:52:03.432Z,2.40
2019-05-22T16:54:30.129Z,3.00
2019-05-22T16:56:56.046Z,2.53
2019-05-22T16:59:22.349Z,2.40
2019-05-22T17:01:59.406Z,2.60
2019-05-22T17:04:16.676Z,2.73
2019-05-22T17:06:43.852Z,2.07
2019-05-22T17:09:12.440Z,2.30
2019-05-22T17:11:39.311Z,2.97
2019-05-22T17:14:06.120Z,2.23
2019-05-22T17:16:34.103Z,2.47
2019-05-22T17:19:00.824Z,2.50
2019-05-22T17:21:27.095Z,2.70
2019-05-22T17:23:53.414Z,2.20
2019-05-22T17:26:19.398Z,3.13
2019-05-22T17:28:46.811Z,4.13
2019-05-22T17:31:14.460Z,2.17
2019-05-22T17:33:40.505Z,2.00
2019-05-22T17:36:07.029Z,2.47
2019-05-22T17:38:33.127Z,2.20
2019-05-22T17:40:59.882Z,3.50
2019-05-22T17:43:28.097Z,2.70
2019-05-22T17:45:54.858Z,3.80
2019-05-22T17:48:21.176Z,2.97
2019-05-22T17:50:47.660Z,2.77
2019-05-22T17:53:14.357Z,3.40
2019-05-22T17:55:41.796Z,4.23
2019-05-22T17:58:09.100Z,3.73
2019-05-22T18:00:37.083Z,3.80
2019-05-22T18:03:03.819Z,3.70
2019-05-22T18:05:30.107Z,3.73
2019-05-22T18:07:56.231Z,4.50
2019-05-22T18:10:22.385Z,3.90
2019-05-22T18:12:48.459Z,4.03
2019-05-22T18:15:17.494Z,3.87
2019-05-22T18:17:43.600Z,3.87
2019-05-22T18:20:12.835Z,4.40
2019-05-22T18:22:39.970Z,4.77
2019-05-22T18:25:06.066Z,4.50
2019-05-22T18:27:32.093Z,4.67
2019-05-22T18:29:58.276Z,4.57
2019-05-22T18:32:24.225Z,5.27
2019-05-22T18:34:49.992Z,4.07
2019-05-22T18:37:18.729Z,3.50
2019-05-22T18:39:44.780Z,4.60
2019-05-22T18:42:13.937Z,4.63
2019-05-22T18:44:40.027Z,10.20
2019-05-22T18:47:09.636Z,7.00
2019-05-22T18:49:35.550Z,5.10
2019-05-22T18:52:01.724Z,4.30
2019-05-22T18:54:27.521Z,4.60
2019-05-22T18:56:56.491Z,4.37
2019-05-22T18:59:22.553Z,3.53
2019-05-22T19:01:48.554Z,4.00
2019-05-22T19:04:14.925Z,4.53
2019-05-22T19:06:41.249Z,4.30
2019-05-22T19:09:08.958Z,4.30
2019-05-22T19:11:34.827Z,5.10
2019-05-22T19:14:03.579Z,5.30
2019-05-22T19:16:29.715Z,4.10
2019-05-22T19:18:58.430Z,5.47
2019-05-22T19:21:24.239Z,4.70
2019-05-22T19:23:53.185Z,5.20
2019-05-22T19:26:19.099Z,4.47
2019-05-22T19:28:48.075Z,4.90
2019-05-22T19:31:14.136Z,4.03
2019-05-22T19:33:43.094Z,4.60
2019-05-22T19:36:09.098Z,4.67
2019-05-22T19:38:35.081Z,4.97
2019-05-22T19:41:01.181Z,4.93
2019-05-22T19:43:27.411Z,5.33
2019-05-22T19:45:53.338Z,5.10
2019-05-22T19:48:19.628Z,5.73
2019-05-22T19:50:48.991Z,5.10
2019-05-22T19:53:19.250Z,5.50
2019-05-22T19:55:44.798Z,6.40
2019-05-22T19:58:11.994Z,5.73
2019-05-22T20:00:37.818Z,5.73
2019-05-22T20:03:04.041Z,5.30
2019-05-22T20:05:34.759Z,5.90
2019-05-22T20:08:00.566Z,6.33
2019-05-22T20:10:26.610Z,5.60
2019-05-22T20:12:52.835Z,6.10
2019-05-22T20:15:19.049Z,5.53
2019-05-22T20:17:45.063Z,7.17
2019-05-22T20:20:12.043Z,7.40
2019-05-22T20:22:43.342Z,9.00
2019-05-22T20:25:09.333Z,7.50
2019-05-22T20:27:35.754Z,6.93
2019-05-22T20:30:05.153Z,7.87
2019-05-22T20:32:31.169Z,7.50
2019-05-22T20:34:57.035Z,7.63
2019-05-22T20:37:23.067Z,6.70
2019-05-22T20:39:49.082Z,6.27
2019-05-22T20:42:17.901Z,6.80
2019-05-22T20:44:44.567Z,7.57
2019-05-22T20:47:16.060Z,7.03
2019-05-22T20:49:43.434Z,6.63
2019-05-22T20:52:11.144Z,6.27
2019-05-22T20:54:37.673Z,7.13
2019-05-22T20:57:05.380Z,6.90
2019-05-22T20:59:31.286Z,7.53
2019-05-22T21:01:57.893Z,6.60
2019-05-22T21:04:24.607Z,6.80
2019-05-22T21:06:59.750Z,6.40
2019-05-22T21:09:26.142Z,6.87
2019-05-22T21:11:52.405Z,7.00
2019-05-22T21:14:18.763Z,6.97
2019-05-22T21:16:45.869Z,6.73
2019-05-22T21:19:13.791Z,7.00
2019-05-22T21:21:39.965Z,7.80
2019-05-22T21:24:11.548Z,7.07
2019-05-22T21:26:34.582Z,6.80
2019-05-22T21:29:00.779Z,6.70
2019-05-22T21:31:28.267Z,7.53
2019-05-22T21:33:54.664Z,6.70
2019-05-22T21:36:22.868Z,6.17
2019-05-22T21:38:49.061Z,8.50
2019-05-22T21:41:15.540Z,6.67
2019-05-22T21:43:41.356Z,7.28
2019-05-22T21:46:07.850Z,8.40
2019-05-22T21:48:33.682Z,7.95
2019-05-22T21:51:01.153Z,7.73
2019-05-22T21:53:27.767Z,7.17
2019-05-22T21:56:04.299Z,9.38
2019-05-22T21:58:22.112Z,8.68
2019-05-22T22:00:55.870Z,8.23
2019-05-22T22:03:28.073Z,8.05
2019-05-22T22:05:55.198Z,7.00
2019-05-22T22:08:21.114Z,7.22
2019-05-22T22:10:47.188Z,7.30
2019-05-22T22:13:14.013Z,7.53
2019-05-22T22:15:40.593Z,7.20
2019-05-22T22:18:06.879Z,7.40
2019-05-22T22:20:32.974Z,7.85
2019-05-22T22:22:59.102Z,7.42
2019-05-22T22:25:25.643Z,7.47
2019-05-22T22:27:51.651Z,9.25
2019-05-22T22:30:33.531Z,7.62
2019-05-22T22:33:04.005Z,8.53
2019-05-22T22:35:31.088Z,7.58
2019-05-22T22:37:57.199Z,7.65
2019-05-22T22:40:24.586Z,8.15
2019-05-22T22:42:52.311Z,7.45
2019-05-22T22:45:21.183Z,7.87
2019-05-22T22:47:47.426Z,7.90
2019-05-22T22:50:13.735Z,8.15
2019-05-22T22:52:41.389Z,8.55
2019-05-22T22:55:10.747Z,7.90
2019-05-22T22:57:37.669Z,7.72
2019-05-22T23:00:04.798Z,7.87
2019-05-22T23:02:32.103Z,6.92
2019-05-22T23:04:58.261Z,8.48
2019-05-22T23:07:24.689Z,7.87
2019-05-22T23:09:51.412Z,7.30
2019-05-22T23:12:19.524Z,7.50
2019-05-22T23:14:50.040Z,7.03
2019-05-22T23:17:15.927Z,8.40
2019-05-22T23:19:42.324Z,6.63
2019-05-22T23:22:09.496Z,7.40
2019-05-22T23:24:37.226Z,8.48
2019-05-22T23:27:05.203Z,7.92
2019-05-22T23:29:32.081Z,9.05
2019-05-22T23:31:58.294Z,6.53
2019-05-22T23:34:24.428Z,7.30
2019-05-22T23:36:50.654Z,7.80
2019-05-22T23:39:17.978Z,8.33
2019-05-22T23:41:45.807Z,8.98
2019-05-22T23:44:15.554Z,9.00
2019-05-22T23:46:42.211Z,8.70
2019-05-22T23:49:08.071Z,8.43
2019-05-22T23:51:34.077Z,10.00
2019-05-22T23:54:01.157Z,8.60
2019-05-22T23:56:27.072Z,7.78
2019-05-22T23:58:54.435Z,9.00
